Time;durP1;ratioP1;P1;durP2;ratioP2;P2;SDS_P1;SDS_P2;PMS_P1;PMS_P2;Temp;Humidity;BMP_temperature;BMP_pressure;BME280_temperature;BME280_humidity;BME280_pressure;Samples;Min_cycle;Max_cycle;Signal;HPM_P1;HPM_P2
2022/04/17 00:02:19;;;;;;;;;;;;;;;;;;4449438;32;20328;-74
2022/04/17 00:04:45;;;;;;;6.20;3.75;;;;;;;;;;4449833;32;19966;-74
2022/04/17 00:07:10;;;;;;;6.85;4.70;;;;;;;;;;4447838;32;20109;-74
2022/04/17 00:09:35;;;;;;;5.22;3.90;;;;;;;;;;4450136;32;20052;-74
2022/04/17 00:12:03;;;;;;;;;;;;;;;;;;4450595;32;20312;-74
2022/04/17 00:14:29;;;;;;;5.60;4.20;;;;;;;;;;4448970;32;19940;-75
2022/04/17 00:16:55;;;;;;;6.20;4.15;;;;;;;;;;4447932;32;20507;-75
2022/04/17 00:19:22;;;;;;;6.87;4.37;;;;;;;;;;4449983;32;20029;-74
2022/04/17 00:21:48;;;;;;;7.37;4.37;;;;;;;;;;4450266;32;20029;-74
2022/04/17 00:24:13;;;;;;;4.95;3.70;;;;;;;;;;4450194;32;20052;-75
2022/04/17 00:26:38;;;;;;;;;;;;;;;;;;4449161;32;20029;-73
2022/04/17 00:29:04;;;;;;;8.90;3.78;;;;;;;;;;4451245;32;19983;-73
2022/04/17 00:31:29;;;;;;;;;;;;;;;;;;4434466;32;20500;-74
2022/04/17 00:33:54;;;;;;;9.07;4.72;;;;;;;;;;4450296;32;19940;-74
2022/04/17 00:36:19;;;;;;;;;;;;;;;;;;4451059;32;20395;-74
2022/04/17 00:38:44;;;;;;;6.60;4.72;;;;;;;;;;4461624;26;20352;-84
2022/04/17 00:41:09;;;;;;;;;;;;;;;;;;4441119;32;20043;-82
2022/04/17 00:43:43;;;;;;;6.80;4.37;;;;;;;;;;4452256;32;19944;-83
2022/04/17 00:46:08;;;;;;;8.63;5.70;;;;;;;;;;4430088;32;20063;-84
2022/04/17 00:48:33;;;;;;;6.95;4.87;;;;;;;;;;4437402;32;20395;-83
2022/04/17 00:50:59;;;;;;;8.80;4.83;;;;;;;;;;4450645;32;20021;-83
2022/04/17 00:53:26;;;;;;;7.90;5.37;;;;;;;;;;4451382;32;20184;-84
2022/04/17 00:55:51;;;;;;;;;;;;;;;;;;4438894;32;20037;-83
2022/04/17 00:58:16;;;;;;;8.02;5.32;;;;;;;;;;4452868;32;19932;-84
2022/04/17 01:00:42;;;;;;;;;;;;;;;;;;4436078;32;20375;-82
2022/04/17 01:03:07;;;;;;;8.23;4.47;;;;;;;;;;4450568;32;19932;-82
2022/04/17 01:05:32;;;;;;;;;;;;;;;;;;4452248;32;20034;-82
2022/04/17 01:07:58;;;;;;;8.10;5.07;;;;;;;;;;4450110;32;19980;-81
2022/04/17 01:10:24;;;;;;;;;;;;;;;;;;4451306;32;20409;-82
2022/04/17 01:12:49;;;;;;;10.20;6.35;;;;;;;;;;4450776;32;19936;-82
2022/04/17 01:15:15;;;;;;;7.28;5.25;;;;;;;;;;4451777;32;20048;-82
2022/04/17 01:17:40;;;;;;;;;;;;;;;;;;4451229;32;20022;-82
2022/04/17 01:20:06;;;;;;;7.12;5.22;;;;;;;;;;4450844;32;19936;-82
2022/04/17 01:22:31;;;;;;;9.57;6.05;;;;;;;;;;4451211;32;20022;-83
2022/04/17 01:27:41;;;;;;;11.20;6.30;;;;;;;;;;4451461;32;20184;-82
2022/04/17 01:30:06;;;;;;;11.73;6.18;;;;;;;;;;4451679;32;20025;-82
2022/04/17 01:32:31;;;;;;;;;;;;;;;;;;4451449;32;20054;-82
2022/04/17 01:34:57;;;;;;;12.70;6.20;;;;;;;;;;4451042;32;20056;-80
2022/04/17 01:37:22;;;;;;;9.52;6.10;;;;;;;;;;4452034;32;20514;-82
2022/04/17 01:39:47;;;;;;;;;;;;;;;;;;4435654;32;20378;-83
2022/04/17 01:42:13;;;;;;;9.85;6.20;;;;;;;;;;4421826;32;19948;-83
2022/04/17 01:44:38;;;;;;;9.50;6.07;;;;;;;;;;4435973;32;20152;-82
2022/04/17 01:47:03;;;;;;;;;;;;;;;;;;4435857;32;20022;-82
2022/04/17 01:49:29;;;;;;;10.23;6.62;;;;;;;;;;4435676;32;19937;-80
2022/04/17 01:51:55;;;;;;;;;;;;;;;;;;4435812;32;20116;-81
2022/04/17 01:54:25;;;;;;;12.85;7.05;;;;;;;;;;4435694;32;19954;-80
2022/04/17 01:56:50;;;;;;;9.27;7.30;;;;;;;;;;4435535;32;20029;-82
2022/04/17 01:59:16;;;;;;;10.32;6.18;;;;;;;;;;4421460;32;20371;-80
2022/04/17 02:01:42;;;;;;;;;;;;;;;;;;4436296;32;20048;-82
2022/04/17 02:04:08;;;;;;;9.43;7.00;;;;;;;;;;4435825;32;19941;-83
2022/04/17 02:06:33;;;;;;;;;;;;;;;;;;4435348;32;20073;-83
2022/04/17 02:08:59;;;;;;;10.10;7.00;;;;;;;;;;4437352;32;20023;-81
2022/04/17 02:11:24;;;;;;;;;;;;;;;;;;4439643;32;20034;-83
2022/04/17 02:13:50;;;;;;;10.44;7.26;;;;;;;;;;4436130;32;19940;-82
2022/04/17 02:16:17;;;;;;;11.95;6.90;;;;;;;;;;4440068;32;20033;-83
2022/04/17 02:18:43;;;;;;;10.63;6.65;;;;;;;;;;4439229;32;20030;-84
2022/04/17 02:21:11;;;;;;;9.73;7.20;;;;;;;;;;4439322;32;20026;-82
2022/04/17 02:23:36;;;;;;;10.35;6.75;;;;;;;;;;4439645;32;20026;-83
2022/04/17 02:26:01;;;;;;;12.20;7.50;;;;;;;;;;4438106;32;20068;-83
2022/04/17 02:28:27;;;;;;;11.98;6.80;;;;;;;;;;4424655;32;20184;-83
2022/04/17 02:30:52;;;;;;;;;;;;;;;;;;4438566;32;20041;-82
2022/04/17 02:33:17;;;;;;;12.57;7.03;;;;;;;;;;4440135;32;19981;-82
2022/04/17 02:35:42;;;;;;;;;;;;;;;;;;4439160;32;20159;-83
2022/04/17 02:38:08;;;;;;;16.55;7.57;;;;;;;;;;4439338;32;19989;-83
2022/04/17 02:40:33;;;;;;;12.45;7.82;;;;;;;;;;4427811;32;20156;-83
2022/04/17 02:42:59;;;;;;;11.33;7.70;;;;;;;;;;4443213;32;20053;-84
2022/04/17 02:45:24;;;;;;;;;;;;;;;;;;4441038;32;20125;-83
2022/04/17 02:47:51;;;;;;;10.85;7.50;;;;;;;;;;4439487;32;20054;-82
2022/04/17 02:50:17;;;;;;;10.60;7.03;;;;;;;;;;4442642;32;20052;-83
2022/04/17 02:52:43;;;;;;;12.80;7.40;;;;;;;;;;4442368;32;20098;-83
2022/04/17 02:55:09;;;;;;;14.63;7.43;;;;;;;;;;4441118;32;20081;-83
2022/04/17 02:57:34;;;;;;;;;;;;;;;;;;4425070;32;20419;-81
2022/04/17 02:59:59;;;;;;;12.23;7.35;;;;;;;;;;4426833;32;19933;-81
2022/04/17 03:07:54;;;;;;;9.25;6.47;;;;;;;;;;4443876;32;20051;-82
2022/04/17 03:10:19;;;;;;;16.08;7.82;;;;;;;;;;4443351;32;20073;-81
2022/04/17 03:12:45;;;;;;;;;;;;;;;;;;4441464;32;20048;-82
2022/04/17 03:15:10;;;;;;;11.12;7.60;;;;;;;;;;4440884;32;19949;-82
2022/04/17 03:17:35;;;;;;;;;;;;;;;;;;4441394;32;20030;-82
2022/04/17 03:20:00;;;;;;;13.23;7.62;;;;;;;;;;4438751;32;19955;-83
2022/04/17 03:22:25;;;;;;;;;;;;;;;;;;4443209;32;20049;-83
2022/04/17 03:24:51;;;;;;;13.45;8.45;;;;;;;;;;4443627;32;19933;-83
2022/04/17 03:27:16;;;;;;;;;;;;;;;;;;4442529;32;20037;-82
2022/04/17 03:29:41;;;;;;;10.98;6.72;;;;;;;;;;4439074;32;19944;-82
2022/04/17 03:32:06;;;;;;;;;;;;;;;;;;4439764;32;20034;-82
2022/04/17 03:34:31;;;;;;;14.25;8.27;;;;;;;;;;4438585;32;19992;-82
2022/04/17 03:36:59;;;;;;;;;;;;;;;;;;4440526;32;20169;-83
2022/04/17 03:39:24;;;;;;;;;;;;;;;;;;4438274;32;19949;-82
2022/04/17 03:41:50;;;;;;;10.63;7.43;;;;;;;;;;4439194;32;19985;-84
2022/04/17 03:44:15;;;;;;;;;;;;;;;;;;4438150;32;20056;-84
2022/04/17 03:46:41;;;;;;;12.60;7.40;;;;;;;;;;4438569;32;19936;-83
2022/04/17 03:49:06;;;;;;;;;;;;;;;;;;4439665;32;20131;-83
2022/04/17 03:51:32;;;;;;;12.48;7.10;;;;;;;;;;4438750;32;19933;-84
2022/04/17 03:53:59;;;;;;;;;;;;;;;;;;4439486;32;20437;-83
2022/04/17 03:56:24;;;;;;;8.82;6.72;;;;;;;;;;4437577;32;19941;-80
2022/04/17 03:58:49;;;;;;;;;;;;;;;;;;4439656;32;20084;-84
2022/04/17 04:01:15;;;;;;;15.43;7.75;;;;;;;;;;4437391;32;19955;-82
2022/04/17 04:03:40;;;;;;;;;;;;;;;;;;4437710;32;20025;-82
2022/04/17 04:06:05;;;;;;;13.85;7.78;;;;;;;;;;4439437;32;19940;-81
2022/04/17 04:08:30;;;;;;;;;;;;;;;;;;4437995;32;20045;-83
2022/04/17 04:10:55;;;;;;;13.45;7.45;;;;;;;;;;4437493;32;19933;-82
2022/04/17 04:13:21;;;;;;;12.05;8.13;;;;;;;;;;4422992;32;20120;-83
2022/04/17 04:15:46;;;;;;;;;;;;;;;;;;4438141;32;20090;-83
2022/04/17 04:18:11;;;;;;;13.30;8.00;;;;;;;;;;4437653;32;19947;-82
2022/04/17 04:20:36;;;;;;;;;;;;;;;;;;4438615;32;20147;-83
2022/04/17 04:23:01;;;;;;;11.63;8.07;;;;;;;;;;4437548;32;19937;-83
2022/04/17 04:25:26;;;;;;;;;;;;;;;;;;4438879;32;20355;-83
2022/04/17 04:30:35;;;;;;;12.32;8.77;;;;;;;;;;4437418;32;20147;-83
2022/04/17 04:33:01;;;;;;;12.70;8.60;;;;;;;;;;4437990;32;20034;-82
2022/04/17 04:35:29;;;;;;;;;;;;;;;;;;4437121;32;20510;-83
2022/04/17 04:37:56;;;;;;;15.05;8.18;;;;;;;;;;4436578;32;19951;-82
2022/04/17 04:40:21;;;;;;;12.80;7.50;;;;;;;;;;4437574;32;20082;-82
2022/04/17 04:42:46;;;;;;;16.30;8.68;;;;;;;;;;4436091;32;20399;-81
2022/04/17 04:47:55;;;;;;;11.82;7.80;;;;;;;;;;4437096;32;19990;-84
2022/04/17 04:50:21;;;;;;;12.25;7.82;;;;;;;;;;4436759;32;20033;-82
2022/04/17 04:52:46;;;;;;;;;;;;;;;;;;4436563;32;20025;-84
2022/04/17 04:55:12;;;;;;;13.75;8.43;;;;;;;;;;4437015;32;19940;-84
2022/04/17 04:57:37;;;;;;;;;;;;;;;;;;4422663;32;20018;-80
2022/04/17 05:00:05;;;;;;;12.63;8.10;;;;;;;;;;4436687;32;19963;-81
2022/04/17 05:02:31;;;;;;;14.87;8.15;;;;;;;;;;4436477;32;20133;-82
2022/04/17 05:04:56;;;;;;;13.90;8.85;;;;;;;;;;4436419;32;20415;-81
2022/04/17 05:07:21;;;;;;;;;;;;;;;;;;4436637;32;20058;-82
2022/04/17 05:09:47;;;;;;;11.40;7.90;;;;;;;;;;4436286;32;20291;-83
2022/04/17 05:12:12;;;;;;;13.88;8.43;;;;;;;;;;4422800;32;20147;-84
2022/04/17 05:14:41;;;;;;;;;;;;;;;;;;4421915;32;20034;-82
2022/04/17 05:17:06;;;;;;;13.43;8.07;;;;;;;;;;4435416;32;19933;-81
2022/04/17 05:19:31;;;;;;;12.00;8.90;;;;;;;;;;4435675;32;20407;-83
2022/04/17 05:21:58;;;;;;;13.35;8.82;;;;;;;;;;4436512;32;20079;-83
2022/04/17 05:24:23;;;;;;;12.25;8.77;;;;;;;;;;4421741;32;20137;-82
2022/04/17 05:26:49;;;;;;;12.07;7.72;;;;;;;;;;4435259;32;20061;-82
2022/04/17 05:29:14;;;;;;;;;;;;;;;;;;4437754;32;20052;-84
2022/04/17 05:31:39;;;;;;;12.88;7.26;;;;;;;;;;4435700;32;19956;-83
2022/04/17 05:34:04;;;;;;;;;;;;;;;;;;4436306;32;20033;-82
2022/04/17 05:36:29;;;;;;;12.95;8.02;;;;;;;;;;4436127;32;19964;-84
2022/04/17 05:38:55;;;;;;;;;;;;;;;;;;4435603;32;20450;-83
2022/04/17 05:41:22;;;;;;;11.75;8.32;;;;;;;;;;4421267;32;19933;-82
2022/04/17 05:43:48;;;;;;;14.80;8.68;;;;;;;;;;4435438;32;20109;-82
2022/04/17 05:46:13;;;;;;;13.27;9.15;;;;;;;;;;4436054;32;20026;-83
2022/04/17 05:48:47;;;;;;;;;;;;;;;;;;4435928;32;20132;-83
2022/04/17 05:51:12;;;;;;;12.95;7.95;;;;;;;;;;4422094;32;20284;-83
2022/04/17 05:53:40;;;;;;;12.10;8.48;;;;;;;;;;4436081;32;20029;-83
2022/04/17 05:56:05;;;;;;;11.88;8.20;;;;;;;;;;4435446;32;20026;-83
2022/04/17 05:58:31;;;;;;;15.00;8.82;;;;;;;;;;4437159;32;20030;-82
2022/04/17 06:00:56;;;;;;;;;;;;;;;;;;4439627;32;20071;-82
2022/04/17 06:03:21;;;;;;;13.73;8.32;;;;;;;;;;4438622;32;20309;-82
2022/04/17 06:05:47;;;;;;;;;;;;;;;;;;4438598;32;20446;-82
2022/04/17 06:08:12;;;;;;;15.25;8.63;;;;;;;;;;4438794;32;20109;-82
2022/04/17 06:10:37;;;;;;;;;;;;;;;;;;4438909;32;20048;-82
2022/04/17 06:13:02;;;;;;;11.98;8.57;;;;;;;;;;4438443;32;19953;-82
2022/04/17 06:15:27;;;;;;;;;;;;;;;;;;4439514;32;20116;-82
2022/04/17 06:17:53;;;;;;;14.05;9.23;;;;;;;;;;4425035;32;19941;-83
2022/04/17 06:20:18;;;;;;;;;;;;;;;;;;4438461;32;20119;-82
2022/04/17 06:22:43;;;;;;;14.10;8.55;;;;;;;;;;4437502;32;19948;-82
2022/04/17 06:25:08;;;;;;;;;;;;;;;;;;4425789;32;20165;-82
2022/04/17 06:27:36;;;;;;;13.13;8.88;;;;;;;;;;4439969;32;19955;-82
2022/04/17 06:30:11;;;;;;;11.82;8.55;;;;;;;;;;4427322;32;20040;-79
2022/04/17 06:32:40;;;;;;;13.85;8.52;;;;;;;;;;4445285;32;20052;-84
2022/04/17 06:35:05;;;;;;;15.70;9.48;;;;;;;;;;4440045;32;20021;-82
2022/04/17 06:37:31;;;;;;;11.43;8.10;;;;;;;;;;4438347;32;20082;-82
2022/04/17 06:39:57;;;;;;;12.45;9.05;;;;;;;;;;4424560;32;20022;-80
2022/04/17 06:42:22;;;;;;;16.45;9.63;;;;;;;;;;4438683;32;20104;-81
2022/04/17 06:44:48;;;;;;;14.35;8.98;;;;;;;;;;4438796;32;20021;-82
2022/04/17 06:47:13;;;;;;;;;;;;;;;;;;4439928;32;20059;-81
2022/04/17 06:49:38;;;;;;;14.32;9.48;;;;;;;;;;4439864;32;19972;-82
2022/04/17 06:52:03;;;;;;;;;;;;;;;;;;4439576;32;20026;-79
2022/04/17 06:54:28;;;;;;;13.18;8.52;;;;;;;;;;4440784;32;19937;-80
2022/04/17 06:56:53;;;;;;;;;;;;;;;;;;4439183;32;20423;-80
2022/04/17 06:59:19;;;;;;;12.05;7.78;;;;;;;;;;4440136;32;19933;-80
2022/04/17 07:01:44;;;;;;;;;;;;;;;;;;4446569;32;20384;-83
2022/04/17 07:04:09;;;;;;;9.85;7.60;;;;;;;;;;4441454;32;19998;-80
2022/04/17 07:06:34;;;;;;;11.18;9.50;;;;;;;;;;4428490;32;20335;-81
2022/04/17 07:09:07;;;;;;;13.75;8.10;;;;;;;;;;4439833;32;21678;-85
2022/04/17 07:11:32;;;;;;;9.55;7.57;;;;;;;;;;4429359;32;20022;-83
2022/04/17 07:13:58;;;;;;;14.48;7.07;;;;;;;;;;4431849;32;20052;-81
2022/04/17 07:16:23;;;;;;;;;;;;;;;;;;4430955;32;20481;-81
2022/04/17 07:18:48;;;;;;;10.88;6.85;;;;;;;;;;4425683;32;20034;-81
2022/04/17 07:21:13;;;;;;;;;;;;;;;;;;4437798;32;20048;-80
2022/04/17 07:23:39;;;;;;;10.45;7.57;;;;;;;;;;4420998;32;20367;-80
2022/04/17 07:26:04;;;;;;;;;;;;;;;;;;4426154;32;20108;-79
2022/04/17 07:28:29;;;;;;;11.07;7.07;;;;;;;;;;4439834;32;20022;-83
2022/04/17 07:30:55;;;;;;;;;;;;;;;;;;4439561;32;20081;-81
2022/04/17 07:33:22;;;;;;;9.57;7.25;;;;;;;;;;4432433;32;19932;-81
2022/04/17 07:35:47;;;;;;;17.02;8.00;;;;;;;;;;4429655;32;20051;-78
2022/04/17 07:38:12;;;;;;;15.85;7.03;;;;;;;;;;4424504;32;20046;-83
2022/04/17 07:40:38;;;;;;;;;;;;;;;;;;4420757;32;20064;-82
2022/04/17 07:43:04;;;;;;;10.60;6.15;;;;;;;;;;4432527;32;19933;-77
2022/04/17 07:45:30;;;;;;;8.13;6.28;;;;;;;;;;4437460;32;20060;-77
2022/04/17 07:47:55;;;;;;;;;;;;;;;;;;4433191;32;20025;-82
2022/04/17 07:50:23;;;;;;;10.02;7.12;;;;;;;;;;4429737;32;20082;-83
2022/04/17 07:52:49;;;;;;;9.23;7.35;;;;;;;;;;4428377;32;20510;-79
2022/04/17 07:55:44;;;;;;;9.32;6.30;;;;;;;;;;4419077;32;20101;-81
2022/04/17 08:00:57;;;;;;;9.05;7.05;;;;;;;;;;4427471;32;20427;-83
2022/04/17 08:03:35;;;;;;;11.30;7.87;;;;;;;;;;4429403;32;20102;-82
2022/04/17 08:06:01;;;;;;;9.25;6.82;;;;;;;;;;4430115;32;20273;-83
2022/04/17 08:08:26;;;;;;;10.73;6.57;;;;;;;;;;4432004;32;20085;-82
2022/04/17 08:10:51;;;;;;;;;;;;;;;;;;4431779;32;20073;-81
2022/04/17 08:13:17;;;;;;;12.32;6.75;;;;;;;;;;4435546;32;19932;-78
2022/04/17 08:15:42;;;;;;;;;;;;;;;;;;4421534;32;20084;-81
2022/04/17 08:18:07;;;;;;;13.27;6.43;;;;;;;;;;4423068;32;19941;-84
2022/04/17 08:20:32;;;;;;;;;;;;;;;;;;4422175;32;20044;-82
2022/04/17 08:22:58;;;;;;;10.85;6.78;;;;;;;;;;4420838;32;19971;-80
2022/04/17 08:25:23;;;;;;;;;;;;;;;;;;4421577;32;20022;-84
2022/04/17 08:27:50;;;;;;;14.82;6.45;;;;;;;;;;4421798;32;20338;-81
2022/04/17 08:30:19;;;;;;;10.45;6.30;;;;;;;;;;4420792;32;20030;-81
2022/04/17 08:32:44;;;;;;;9.48;6.32;;;;;;;;;;4421058;32;20021;-82
2022/04/17 08:35:09;;;;;;;;;;;;;;;;;;4421448;32;20389;-81
2022/04/17 08:37:34;;;;;;;8.43;6.45;;;;;;;;;;4420543;32;19969;-79
2022/04/17 08:39:59;;;;;;;;;;;;;;;;;;4421700;32;20026;-82
2022/04/17 08:42:25;;;;;;;12.32;6.80;;;;;;;;;;4421293;32;19938;-82
2022/04/17 08:44:51;;;;;;;;;;;;;;;;;;4422664;32;20109;-84
2022/04/17 08:47:16;;;;;;;7.50;6.22;;;;;;;;;;4420043;32;20244;-79
2022/04/17 08:49:41;;;;;;;;;;;;;;;;;;4422779;32;20110;-81
2022/04/17 08:52:08;;;;;;;8.02;6.30;;;;;;;;;;4419549;32;19948;-83
2022/04/17 08:54:33;;;;;;;6.90;6.03;;;;;;;;;;4421398;32;20050;-84
2022/04/17 08:56:59;;;;;;;;;;;;;;;;;;4421294;32;20403;-82
2022/04/17 08:59:24;;;;;;;8.63;5.72;;;;;;;;;;4419867;32;20303;-82
2022/04/17 09:01:49;;;;;;;;;;;;;;;;;;4421287;32;20367;-80
2022/04/17 09:04:14;;;;;;;10.70;6.20;;;;;;;;;;4421228;32;20312;-82
2022/04/17 09:06:39;;;;;;;;;;;;;;;;;;4421789;32;20041;-82
2022/04/17 09:09:05;;;;;;;11.35;7.57;;;;;;;;;;4421374;32;19997;-82
2022/04/17 09:11:31;;;;;;;;;;;;;;;;;;4435014;32;20081;-82
2022/04/17 09:13:57;;;;;;;10.00;6.53;;;;;;;;;;4437287;32;20338;-80
2022/04/17 09:16:29;;;;;;;10.68;6.25;;;;;;;;;;4436583;32;20125;-81
2022/04/17 09:18:55;;;;;;;8.13;6.03;;;;;;;;;;4436525;32;20056;-83
2022/04/17 09:21:28;;;;;;;9.55;6.80;;;;;;;;;;4436967;32;20033;-80
2022/04/17 09:23:53;;;;;;;9.80;6.60;;;;;;;;;;4422867;32;20030;-81
2022/04/17 09:26:19;;;;;;;;;;;;;;;;;;4436717;32;20472;-82
2022/04/17 09:28:44;;;;;;;7.40;5.18;;;;;;;;;;4436872;32;19937;-81
2022/04/17 09:31:09;;;;;;;;;;;;;;;;;;4436613;32;20398;-80
2022/04/17 09:33:36;;;;;;;7.82;6.00;;;;;;;;;;4438935;32;20274;-81
2022/04/17 09:36:02;;;;;;;9.15;6.10;;;;;;;;;;4439749;32;20025;-80
2022/04/17 09:38:30;;;;;;;7.28;5.78;;;;;;;;;;4439605;32;20037;-79
2022/04/17 09:41:09;;;;;;;7.20;5.68;;;;;;;;;;4439936;32;20147;-83
2022/04/17 09:43:35;;;;;;;8.73;5.95;;;;;;;;;;4439332;32;20433;-82
2022/04/17 09:46:07;;;;;;;6.78;5.60;;;;;;;;;;4438928;32;20037;-83
2022/04/17 09:48:36;;;;;;;8.65;5.82;;;;;;;;;;4425313;32;20025;-82
2022/04/17 09:51:18;;;;;;;6.95;5.85;;;;;;;;;;4439207;32;20324;-82
2022/04/17 09:53:54;;;;;;;6.87;5.30;;;;;;;;;;4425035;32;20021;-83
2022/04/17 09:56:28;;;;;;;9.90;6.18;;;;;;;;;;4439636;32;20060;-82
2022/04/17 09:58:53;;;;;;;7.87;5.35;;;;;;;;;;4434802;32;20465;-79
2022/04/17 10:01:19;;;;;;;7.53;5.53;;;;;;;;;;4435778;32;20057;-84
2022/04/17 10:03:49;;;;;;;7.47;5.80;;;;;;;;;;4427872;32;20029;-82
2022/04/17 10:06:15;;;;;;;8.02;5.18;;;;;;;;;;4445659;32;20084;-81
2022/04/17 10:08:43;;;;;;;6.22;5.12;;;;;;;;;;4425260;32;20014;-82
2022/04/17 10:11:08;;;;;;;9.95;5.30;;;;;;;;;;4438668;32;20103;-84
2022/04/17 10:13:33;;;;;;;6.80;5.60;;;;;;;;;;4430697;32;20022;-83
2022/04/17 10:15:58;;;;;;;;;;;;;;;;;;4423547;32;20104;-80
2022/04/17 10:18:27;;;;;;;7.47;5.37;;;;;;;;;;4423436;32;20308;-83
2022/04/17 10:20:53;;;;;;;7.15;5.03;;;;;;;;;;4422790;32;20026;-80
2022/04/17 10:23:20;;;;;;;6.30;4.95;;;;;;;;;;4423371;32;20080;-82
2022/04/17 10:25:47;;;;;;;10.88;6.28;;;;;;;;;;4422449;32;20030;-82
2022/04/17 10:28:14;;;;;;;10.55;5.70;;;;;;;;;;4430633;32;20108;-82
2022/04/17 10:30:42;;;;;;;8.45;5.97;;;;;;;;;;4438490;32;20061;-85
2022/04/17 10:33:26;;;;;;;6.50;5.45;;;;;;;;;;4438162;32;20093;-82
2022/04/17 10:35:59;;;;;;;6.22;5.18;;;;;;;;;;4421184;32;20063;-82
2022/04/17 10:38:32;;;;;;;7.70;4.93;;;;;;;;;;4426327;32;20064;-83
2022/04/17 10:41:08;;;;;;;7.43;4.93;;;;;;;;;;4438166;32;20030;-82
2022/04/17 10:43:34;;;;;;;;;;;;;;;;;;4438040;32;20079;-81
2022/04/17 10:46:07;;;;;;;5.68;4.72;;;;;;;;;;4437969;32;20020;-82
2022/04/17 10:48:40;;;;;;;10.85;4.70;;;;;;;;;;4438424;32;20123;-84
2022/04/17 10:51:15;;;;;;;6.95;4.93;;;;;;;;;;4438104;32;20416;-84
2022/04/17 10:53:52;;;;;;;7.20;5.50;;;;;;;;;;4438034;32;20060;-80
2022/04/17 10:56:19;;;;;;;6.32;5.50;;;;;;;;;;4429687;32;20026;-82
2022/04/17 10:58:55;;;;;;;9.25;5.35;;;;;;;;;;4427229;32;20030;-82
2022/04/17 11:01:56;;;;;;;7.17;4.70;;;;;;;;;;4438103;32;20102;-81
2022/04/17 11:04:25;;;;;;;5.97;4.90;;;;;;;;;;4359999;32;20035;-82
2022/04/17 11:07:06;;;;;;;8.00;5.57;;;;;;;;;;4423217;32;20033;-81
2022/04/17 11:09:36;;;;;;;7.70;5.07;;;;;;;;;;4437667;32;20074;-83
2022/04/17 11:12:08;;;;;;;6.90;5.05;;;;;;;;;;4427844;32;20068;-83
2022/04/17 11:14:33;;;;;;;7.18;5.07;;;;;;;;;;4424692;32;20424;-82
2022/04/17 11:16:59;;;;;;;9.25;4.68;;;;;;;;;;4439804;32;20025;-84
2022/04/17 11:19:25;;;;;;;7.93;4.47;;;;;;;;;;4436946;32;20052;-84
2022/04/17 11:21:54;;;;;;;7.25;4.65;;;;;;;;;;4438090;32;20077;-83
2022/04/17 11:24:20;;;;;;;4.90;3.62;;;;;;;;;;4423710;32;20053;-79
2022/04/17 11:26:55;;;;;;;8.48;4.68;;;;;;;;;;4438714;32;20152;-83
2022/04/17 11:29:39;;;;;;;6.28;4.93;;;;;;;;;;4437110;32;20033;-82
2022/04/17 11:32:16;;;;;;;7.82;4.68;;;;;;;;;;4424994;32;20093;-82
2022/04/17 11:34:42;;;;;;;9.82;4.55;;;;;;;;;;4423160;32;20064;-80
2022/04/17 11:37:07;;;;;;;6.37;4.93;;;;;;;;;;4437567;32;20346;-83
2022/04/17 11:39:34;;;;;;;5.37;4.87;;;;;;;;;;4437286;32;20041;-85
2022/04/17 11:41:59;;;;;;;6.30;5.03;;;;;;;;;;4436972;32;20034;-83
2022/04/17 11:44:24;;;;;;;5.68;4.60;;;;;;;;;;4422635;32;20401;-83
2022/04/17 11:46:50;;;;;;;5.80;4.95;;;;;;;;;;4436822;32;20033;-78
2022/04/17 11:49:15;;;;;;;6.00;4.43;;;;;;;;;;4437821;32;20062;-83
2022/04/17 11:51:43;;;;;;;12.55;4.97;;;;;;;;;;4422752;32;20022;-83
2022/04/17 11:54:27;;;;;;;5.60;4.70;;;;;;;;;;4436974;32;20077;-82
2022/04/17 11:56:52;;;;;;;6.37;5.35;;;;;;;;;;4436243;32;20082;-83
2022/04/17 11:59:18;;;;;;;8.20;5.10;;;;;;;;;;4429040;32;20382;-83
2022/04/17 12:01:43;;;;;;;7.40;5.32;;;;;;;;;;4434680;32;20030;-84
2022/04/17 12:04:18;;;;;;;5.78;4.03;;;;;;;;;;4422656;32;20373;-84
2022/04/17 12:06:44;;;;;;;5.43;4.30;;;;;;;;;;4437591;32;20108;-82
2022/04/17 12:09:11;;;;;;;6.25;4.87;;;;;;;;;;4436333;32;20068;-83
2022/04/17 12:11:39;;;;;;;6.22;4.15;;;;;;;;;;4435050;32;20363;-81
2022/04/17 12:14:05;;;;;;;5.53;4.53;;;;;;;;;;4410327;32;20066;-84
2022/04/17 12:16:30;;;;;;;5.72;4.35;;;;;;;;;;4428346;32;20026;-83
2022/04/17 12:18:56;;;;;;;7.40;4.87;;;;;;;;;;4437540;32;20047;-83
2022/04/17 12:21:27;;;;;;;5.37;4.72;;;;;;;;;;4431753;32;20029;-82
2022/04/17 12:23:53;;;;;;;5.60;4.20;;;;;;;;;;4436666;32;20097;-84
2022/04/17 12:26:19;;;;;;;6.65;4.60;;;;;;;;;;4435694;32;20025;-84
2022/04/17 12:28:44;;;;;;;6.30;3.90;;;;;;;;;;4437003;32;20347;-84
2022/04/17 12:31:12;;;;;;;4.20;3.80;;;;;;;;;;4422791;32;20021;-81
2022/04/17 12:33:37;;;;;;;6.47;4.12;;;;;;;;;;4437147;32;20060;-81
2022/04/17 12:36:03;;;;;;;4.93;3.78;;;;;;;;;;4418254;32;20065;-81
2022/04/17 12:38:28;;;;;;;7.55;3.72;;;;;;;;;;4435650;32;20106;-81
2022/04/17 12:40:53;;;;;;;5.10;3.87;;;;;;;;;;4441625;32;20358;-82
2022/04/17 12:43:20;;;;;;;5.30;3.65;;;;;;;;;;4433818;32;20065;-84
2022/04/17 12:45:57;;;;;;;5.43;4.10;;;;;;;;;;4422474;32;20113;-83
2022/04/17 12:48:30;;;;;;;7.35;4.00;;;;;;;;;;4436129;32;20054;-83
2022/04/17 12:50:58;;;;;;;7.12;3.78;;;;;;;;;;4436597;32;20047;-84
2022/04/17 12:53:24;;;;;;;6.97;3.78;;;;;;;;;;4435953;32;20045;-78
2022/04/17 12:55:51;;;;;;;7.45;4.90;;;;;;;;;;4435818;32;20065;-84
2022/04/17 12:58:16;;;;;;;4.72;4.05;;;;;;;;;;4435756;32;20026;-84
2022/04/17 13:00:42;;;;;;;4.32;3.75;;;;;;;;;;4422013;32;20112;-83
2022/04/17 13:03:10;;;;;;;4.75;3.67;;;;;;;;;;4436329;32;20018;-82
2022/04/17 13:05:36;;;;;;;6.55;4.45;;;;;;;;;;4436026;32;20026;-80
2022/04/17 13:08:05;;;;;;;5.40;3.72;;;;;;;;;;4436692;32;20067;-83
2022/04/17 13:10:31;;;;;;;5.90;4.15;;;;;;;;;;4421740;32;20419;-83
2022/04/17 13:12:56;;;;;;;8.60;4.45;;;;;;;;;;4435929;32;20070;-84
2022/04/17 13:15:28;;;;;;;4.75;4.20;;;;;;;;;;4436248;32;20071;-80
2022/04/17 13:17:54;;;;;;;5.70;4.70;;;;;;;;;;4435807;32;20017;-82
2022/04/17 13:20:19;;;;;;;5.68;4.55;;;;;;;;;;4436381;32;20109;-83
2022/04/17 13:22:45;;;;;;;6.68;4.40;;;;;;;;;;4436716;32;20025;-83
2022/04/17 13:25:11;;;;;;;7.12;4.18;;;;;;;;;;4433107;32;20022;-84
2022/04/17 13:27:36;;;;;;;4.60;3.72;;;;;;;;;;4413890;32;20324;-82
2022/04/17 13:30:02;;;;;;;7.28;3.97;;;;;;;;;;4425645;32;20063;-83
2022/04/17 13:32:28;;;;;;;8.35;3.85;;;;;;;;;;4424801;32;20057;-81
2022/04/17 13:34:53;;;;;;;5.37;4.10;;;;;;;;;;4436581;32;20030;-81
2022/04/17 13:40:03;;;;;;;4.43;3.97;;;;;;;;;;4435437;32;20094;-81
2022/04/17 13:42:28;;;;;;;8.57;4.60;;;;;;;;;;4433405;32;20407;-81
2022/04/17 13:44:53;;;;;;;6.72;4.22;;;;;;;;;;4436290;32;20022;-80
2022/04/17 13:47:18;;;;;;;5.50;4.03;;;;;;;;;;4438825;32;20156;-81
2022/04/17 13:49:44;;;;;;;7.10;4.70;;;;;;;;;;4438016;32;20022;-83
2022/04/17 13:52:09;;;;;;;5.70;4.53;;;;;;;;;;4435597;32;20179;-82
2022/04/17 13:54:35;;;;;;;5.45;3.42;;;;;;;;;;4422315;32;20026;-84
2022/04/17 13:57:00;;;;;;;4.20;3.80;;;;;;;;;;4435801;32;20048;-83
2022/04/17 13:59:26;;;;;;;7.62;4.05;;;;;;;;;;4437288;32;20078;-83
2022/04/17 14:01:51;;;;;;;5.00;4.10;;;;;;;;;;4431394;32;20147;-83
2022/04/17 14:04:16;;;;;;;5.03;4.25;;;;;;;;;;4421027;32;20302;-81
2022/04/17 14:06:41;;;;;;;5.28;4.40;;;;;;;;;;4420552;32;20370;-84
2022/04/17 14:09:06;;;;;;;7.60;4.67;;;;;;;;;;4420852;32;20344;-82
2022/04/17 14:11:33;;;;;;;6.00;4.03;;;;;;;;;;4418711;32;20172;-84
2022/04/17 14:13:58;;;;;;;8.15;4.62;;;;;;;;;;4420348;32;20022;-83
2022/04/17 14:16:23;;;;;;;7.35;3.90;;;;;;;;;;4421426;32;20099;-81
2022/04/17 14:18:49;;;;;;;4.97;4.03;;;;;;;;;;4412672;32;20087;-85
2022/04/17 14:21:16;;;;;;;10.02;4.50;;;;;;;;;;4423423;32;20408;-82
2022/04/17 14:23:41;;;;;;;6.28;3.67;;;;;;;;;;4433481;32;20038;-78
2022/04/17 14:26:06;;;;;;;5.57;4.03;;;;;;;;;;4429352;32;20394;-84
2022/04/17 14:28:32;;;;;;;4.15;3.75;;;;;;;;;;4430100;32;20077;-80
2022/04/17 14:30:57;;;;;;;5.95;3.87;;;;;;;;;;4431929;32;20290;-82
2022/04/17 14:33:22;;;;;;;4.05;3.65;;;;;;;;;;4432362;32;20359;-81
2022/04/17 14:35:56;;;;;;;3.70;2.97;;;;;;;;;;4433267;32;20059;-81
2022/04/17 14:38:22;;;;;;;5.68;3.78;;;;;;;;;;4422921;32;20470;-82
2022/04/17 14:40:47;;;;;;;6.72;3.90;;;;;;;;;;4431543;32;20061;-81
2022/04/17 14:43:12;;;;;;;4.60;3.92;;;;;;;;;;4430918;32;20440;-83
2022/04/17 14:45:39;;;;;;;5.13;3.93;;;;;;;;;;4430365;32;20052;-82
2022/04/17 14:48:04;;;;;;;4.20;3.75;;;;;;;;;;4428633;32;20116;-83
2022/04/17 14:50:33;;;;;;;5.72;3.75;;;;;;;;;;4422850;32;20064;-83
2022/04/17 14:52:58;;;;;;;5.32;3.78;;;;;;;;;;4428745;32;20026;-83
2022/04/17 14:55:24;;;;;;;6.90;3.62;;;;;;;;;;4418247;32;20044;-81
2022/04/17 14:57:49;;;;;;;7.37;3.40;;;;;;;;;;4428512;32;20128;-79
2022/04/17 15:00:15;;;;;;;4.12;3.37;;;;;;;;;;4423426;32;20145;-83
2022/04/17 15:02:40;;;;;;;6.87;3.83;;;;;;;;;;4437932;32;20419;-83
2022/04/17 15:05:06;;;;;;;12.90;3.53;;;;;;;;;;4437688;32;20403;-81
2022/04/17 15:07:32;;;;;;;5.47;3.60;;;;;;;;;;4437853;32;20049;-83
2022/04/17 15:09:58;;;;;;;4.00;3.60;;;;;;;;;;4438008;32;20072;-80
2022/04/17 15:12:23;;;;;;;5.70;3.57;;;;;;;;;;4437625;32;20022;-81
2022/04/17 15:14:48;;;;;;;8.32;3.42;;;;;;;;;;4424240;32;20125;-83
2022/04/17 15:17:13;;;;;;;4.62;3.00;;;;;;;;;;4423367;32;20089;-83
2022/04/17 15:19:39;;;;;;;5.37;3.20;;;;;;;;;;4438559;32;20071;-85